Time;durP1;ratioP1;P1;durP2;ratioP2;P2;SDS_P1;SDS_P2;PMS_P1;PMS_P2;Temp;Humidity;BMP_temperature;BMP_pressure;BME280_temperature;BME280_humidity;BME280_pressure;Samples;Min_cycle;Max_cycle;Signal;HPM_P1;HPM_P2
2022/08/02 00:01:34;;;;;;;4.72;1.55;;;18.30;58.80;;;;;;5023910;28;20026;-65
2022/08/02 00:03:59;;;;;;;8.20;2.00;;;18.30;59.00;;;;;;5016302;28;20025;-64
2022/08/02 00:06:25;;;;;;;5.40;2.13;;;18.30;59.00;;;;;;5013675;28;20111;-65
2022/08/02 00:08:52;;;;;;;3.58;1.40;;;18.30;59.10;;;;;;5020032;28;20448;-65
2022/08/02 00:11:18;;;;;;;5.38;1.70;;;18.30;59.30;;;;;;5012025;28;20045;-64
2022/08/02 00:13:44;;;;;;;5.68;1.40;;;18.30;60.10;;;;;;5029669;28;20036;-64
2022/08/02 00:16:10;;;;;;;5.13;1.70;;;18.30;59.60;;;;;;5012202;28;20030;-64
2022/08/02 00:18:36;;;;;;;5.03;1.50;;;18.30;59.80;;;;;;5027626;28;20018;-65
2022/08/02 00:21:02;;;;;;;4.25;1.40;;;18.20;59.80;;;;;;5009947;28;20038;-64
2022/08/02 00:23:27;;;;;;;5.28;1.70;;;18.30;60.00;;;;;;5028353;28;20339;-64
2022/08/02 00:25:53;;;;;;;5.47;2.00;;;18.30;60.20;;;;;;5011687;28;20363;-64
2022/08/02 00:28:19;;;;;;;5.85;1.70;;;18.20;60.30;;;;;;5028059;28;20157;-65
2022/08/02 00:30:44;;;;;;;3.20;1.52;;;18.20;60.40;;;;;;5010755;28;20415;-64
2022/08/02 00:33:10;;;;;;;5.80;1.83;;;18.20;60.50;;;;;;5011578;28;20072;-64
2022/08/02 00:35:36;;;;;;;5.82;1.70;;;18.20;60.60;;;;;;5010203;28;20030;-65
2022/08/02 00:38:03;;;;;;;4.20;1.50;;;18.20;60.70;;;;;;5029061;28;20350;-65
2022/08/02 00:40:29;;;;;;;6.55;2.00;;;18.20;60.70;;;;;;5016126;28;20045;-64
2022/08/02 00:43:06;;;;;;;5.18;1.63;;;18.20;60.70;;;;;;5011447;28;20050;-65
2022/08/02 00:45:34;;;;;;;4.22;1.65;;;18.20;60.80;;;;;;5012630;28;20026;-64
2022/08/02 00:47:59;;;;;;;6.55;2.08;;;18.20;61.00;;;;;;5020414;28;20026;-64
2022/08/02 00:50:26;;;;;;;6.45;1.75;;;18.20;61.10;;;;;;5030503;28;20076;-65
2022/08/02 00:52:51;;;;;;;5.65;1.83;;;18.20;61.30;;;;;;5010359;28;20518;-65
2022/08/02 00:55:17;;;;;;;6.38;1.75;;;18.20;61.30;;;;;;5024013;28;20033;-64
2022/08/02 00:57:43;;;;;;;7.60;1.83;;;18.20;61.40;;;;;;5021824;28;20424;-65
2022/08/02 01:00:09;;;;;;;6.40;1.98;;;18.10;61.40;;;;;;5026311;28;20100;-64
2022/08/02 01:02:35;;;;;;;4.00;1.60;;;18.10;61.50;;;;;;5013400;28;20101;-64
2022/08/02 01:05:00;;;;;;;3.65;1.63;;;18.10;61.60;;;;;;5021632;28;20109;-64
2022/08/02 01:07:26;;;;;;;6.53;1.83;;;18.10;61.70;;;;;;5022349;28;20451;-64
2022/08/02 01:09:52;;;;;;;8.60;2.22;;;18.00;61.80;;;;;;5027706;28;20022;-64
2022/08/02 01:12:18;;;;;;;5.55;1.80;;;18.00;61.90;;;;;;5012846;28;20415;-64
2022/08/02 01:14:46;;;;;;;6.57;2.03;;;18.00;62.10;;;;;;5019359;28;20028;-64
2022/08/02 01:17:27;;;;;;;6.57;1.70;;;18.00;62.20;;;;;;5014411;28;20064;-64
2022/08/02 01:20:35;;;;;;;4.97;2.08;;;17.90;62.20;;;;;;5020544;28;20026;-65
2022/08/02 01:23:23;;;;;;;4.68;1.80;;;17.90;62.20;;;;;;5014539;28;20033;-65
2022/08/02 01:25:48;;;;;;;5.03;1.75;;;17.90;62.40;;;;;;5021085;28;20420;-64
2022/08/02 01:28:37;;;;;;;4.57;1.83;;;17.90;62.50;;;;;;5018901;28;20105;-64
2022/08/02 01:31:15;;;;;;;6.88;2.10;;;17.90;62.70;;;;;;5022233;28;20042;-64
2022/08/02 01:33:50;;;;;;;5.00;1.80;;;17.80;62.70;;;;;;5012393;28;20382;-64
2022/08/02 01:36:18;;;;;;;4.88;1.70;;;17.80;62.90;;;;;;5014471;28;20038;-64
2022/08/02 01:38:49;;;;;;;4.28;1.60;;;17.80;62.90;;;;;;5016946;28;20394;-64
2022/08/02 01:41:20;;;;;;;5.10;1.63;;;17.80;63.00;;;;;;5025686;28;20378;-64
2022/08/02 01:43:48;;;;;;;4.80;1.83;;;17.80;63.10;;;;;;5010491;28;20029;-64
2022/08/02 01:46:16;;;;;;;4.90;1.50;;;17.80;63.20;;;;;;5029742;28;20362;-64
2022/08/02 01:48:44;;;;;;;4.03;1.70;;;17.80;63.40;;;;;;5028193;28;20044;-64
2022/08/02 01:51:13;;;;;;;4.88;1.67;;;17.70;63.40;;;;;;5026755;28;20518;-64
2022/08/02 01:53:41;;;;;;;3.80;1.60;;;17.70;63.40;;;;;;5032941;28;20041;-64
2022/08/02 01:56:08;;;;;;;4.03;1.60;;;17.70;63.60;;;;;;5022432;28;20037;-65
2022/08/02 01:58:36;;;;;;;6.55;1.67;;;17.70;63.70;;;;;;5030856;28;20104;-64
2022/08/02 02:01:05;;;;;;;4.43;1.70;;;17.60;63.80;;;;;;5030702;28;20366;-64
2022/08/02 02:03:32;;;;;;;4.28;1.80;;;17.60;64.00;;;;;;5022555;28;20114;-64
2022/08/02 02:06:00;;;;;;;3.55;1.77;;;17.60;64.10;;;;;;5026096;28;20061;-64
2022/08/02 02:08:35;;;;;;;4.75;1.67;;;17.60;64.20;;;;;;5030949;28;20026;-65
2022/08/02 02:11:02;;;;;;;5.85;1.77;;;17.60;64.30;;;;;;5016046;28;20045;-64
2022/08/02 02:13:30;;;;;;;6.53;2.10;;;17.60;64.40;;;;;;5030216;28;20328;-64
2022/08/02 02:15:58;;;;;;;4.38;1.80;;;17.60;64.50;;;;;;5024968;28;20052;-64
2022/08/02 02:18:28;;;;;;;5.80;1.75;;;17.60;64.60;;;;;;5023261;28;20375;-64
2022/08/02 02:20:54;;;;;;;5.00;1.80;;;17.60;64.70;;;;;;5023699;28;20033;-64
2022/08/02 02:23:20;;;;;;;5.68;1.85;;;17.50;64.80;;;;;;5025881;28;20021;-64
2022/08/02 02:25:46;;;;;;;4.43;1.65;;;17.50;65.00;;;;;;5020061;28;20113;-64
2022/08/02 02:28:28;;;;;;;6.18;1.85;;;17.50;65.10;;;;;;5033492;28;20021;-65
2022/08/02 02:31:12;;;;;;;4.07;1.70;;;17.50;65.10;;;;;;5022437;28;20032;-64
2022/08/02 02:33:44;;;;;;;4.47;1.73;;;17.50;65.20;;;;;;5016398;28;20104;-64
2022/08/02 02:36:10;;;;;;;3.97;1.65;;;17.50;65.30;;;;;;5024344;28;20096;-64
2022/08/02 02:38:37;;;;;;;3.60;1.70;;;17.50;65.40;;;;;;5023763;28;20067;-64
2022/08/02 02:41:05;;;;;;;5.13;2.00;;;17.50;65.50;;;;;;5024513;28;20037;-64
2022/08/02 02:43:33;;;;;;;4.03;1.70;;;17.50;65.50;;;;;;5020245;28;20030;-64
2022/08/02 02:46:04;;;;;;;5.72;1.80;;;17.50;65.60;;;;;;5018240;28;20056;-64
2022/08/02 02:48:30;;;;;;;5.90;1.83;;;17.50;65.70;;;;;;5015543;28;20312;-64
2022/08/02 02:50:58;;;;;;;4.72;1.70;;;17.40;65.70;;;;;;5018875;28;20188;-64
2022/08/02 02:53:24;;;;;;;8.60;2.28;;;17.40;65.80;;;;;;5017705;28;20026;-64
2022/08/02 02:55:51;;;;;;;3.83;1.60;;;17.40;65.80;;;;;;5030281;28;20052;-64
2022/08/02 02:58:17;;;;;;;4.70;2.03;;;17.40;65.80;;;;;;5026841;28;20333;-64
2022/08/02 03:03:30;;;;;;;6.45;2.22;;;17.40;65.90;;;;;;5013630;28;20136;-64
2022/08/02 03:05:55;;;;;;;6.22;2.25;;;17.40;65.80;;;;;;5017784;28;20029;-64
2022/08/02 03:08:21;;;;;;;5.40;1.98;;;17.40;65.80;;;;;;5027468;28;20034;-65
2022/08/02 03:10:47;;;;;;;10.13;2.65;;;17.40;65.80;;;;;;5016319;28;20196;-64
2022/08/02 03:13:14;;;;;;;4.45;2.10;;;17.40;65.80;;;;;;5018227;28;20390;-64
2022/08/02 03:15:41;;;;;;;5.07;2.05;;;17.40;65.80;;;;;;5016272;28;20362;-66
2022/08/02 03:18:07;;;;;;;6.18;2.22;;;17.40;65.80;;;;;;5030964;28;20030;-64
2022/08/02 03:20:33;;;;;;;6.43;2.20;;;17.40;65.80;;;;;;5014019;28;20030;-64
2022/08/02 03:22:58;;;;;;;6.80;2.33;;;17.40;65.80;;;;;;5023118;28;20039;-64
2022/08/02 03:25:24;;;;;;;5.78;2.20;;;17.40;65.90;;;;;;5012779;28;20033;-65
2022/08/02 03:27:51;;;;;;;7.25;2.13;;;17.30;65.90;;;;;;5031734;28;20438;-64
2022/08/02 03:30:16;;;;;;;7.05;2.38;;;17.40;66.10;;;;;;5018433;28;20044;-65
2022/08/02 03:32:45;;;;;;;7.40;2.10;;;17.30;66.10;;;;;;5017208;28;20034;-64
2022/08/02 03:35:13;;;;;;;4.28;1.90;;;17.30;66.30;;;;;;5004408;28;20068;-65
2022/08/02 03:37:40;;;;;;;4.43;2.15;;;17.20;66.30;;;;;;5018537;28;20049;-64
2022/08/02 03:40:08;;;;;;;5.55;2.05;;;17.20;66.40;;;;;;5015773;28;20033;-65
2022/08/02 03:42:34;;;;;;;6.80;2.13;;;17.20;66.40;;;;;;5032643;28;20104;-65
2022/08/02 03:45:02;;;;;;;7.25;2.08;;;17.20;66.40;;;;;;5013245;28;20510;-64
2022/08/02 03:47:29;;;;;;;7.30;2.10;;;17.20;66.40;;;;;;5013433;28;20463;-64
2022/08/02 03:49:56;;;;;;;5.53;2.30;;;17.20;66.40;;;;;;5017363;28;20365;-65
2022/08/02 03:52:23;;;;;;;5.95;2.30;;;17.30;66.40;;;;;;5034759;28;20516;-64
2022/08/02 03:54:48;;;;;;;7.32;2.50;;;17.30;66.30;;;;;;5013584;28;20091;-64
2022/08/02 03:57:14;;;;;;;6.00;2.30;;;17.30;66.40;;;;;;5034096;28;20109;-64
2022/08/02 03:59:44;;;;;;;7.82;2.75;;;17.40;66.40;;;;;;5015078;28;20025;-64
2022/08/02 04:02:11;;;;;;;6.95;2.25;;;17.40;66.30;;;;;;5029186;28;20032;-65
2022/08/02 04:04:37;;;;;;;6.68;2.00;;;17.40;66.30;;;;;;5015119;28;20309;-64
2022/08/02 04:07:03;;;;;;;7.70;2.38;;;17.40;66.30;;;;;;5032062;28;20466;-65
2022/08/02 04:09:29;;;;;;;5.97;2.60;;;17.50;66.40;;;;;;5026465;28;20072;-64
2022/08/02 04:11:55;;;;;;;4.55;2.15;;;17.50;66.30;;;;;;5022566;28;20113;-65
2022/08/02 04:14:21;;;;;;;6.72;2.65;;;17.50;66.30;;;;;;5012007;28;20036;-67
2022/08/02 04:16:59;;;;;;;5.90;2.30;;;17.50;66.30;;;;;;5008967;28;20142;-65
2022/08/02 04:19:52;;;;;;;5.95;2.53;;;17.50;66.20;;;;;;5008850;28;20030;-63
2022/08/02 04:22:27;;;;;;;7.68;2.88;;;17.50;66.30;;;;;;5010568;28;20087;-63
2022/08/02 04:25:00;;;;;;;5.18;2.42;;;17.50;66.20;;;;;;5005597;28;20026;-63
2022/08/02 04:27:26;;;;;;;5.78;2.58;;;17.60;66.10;;;;;;5007877;28;20030;-64
2022/08/02 04:29:53;;;;;;;7.60;2.67;;;17.60;66.00;;;;;;5017857;28;20056;-63
2022/08/02 04:32:19;;;;;;;7.70;2.88;;;17.60;65.90;;;;;;5025445;28;20044;-63
2022/08/02 04:34:45;;;;;;;8.27;2.83;;;17.60;66.00;;;;;;5009216;28;20070;-64
2022/08/02 04:37:12;;;;;;;5.35;2.53;;;17.70;66.10;;;;;;5005142;28;20056;-63
2022/08/02 04:39:40;;;;;;;9.82;2.90;;;17.70;66.10;;;;;;5002050;28;20030;-63
2022/08/02 04:42:06;;;;;;;6.95;2.95;;;17.70;66.10;;;;;;5000469;28;20418;-63
2022/08/02 04:44:31;;;;;;;10.82;3.08;;;17.70;66.80;;;;;;5006375;28;20014;-63
2022/08/02 04:46:58;;;;;;;8.52;3.40;;;17.70;66.10;;;;;;5004330;28;20427;-63
2022/08/02 04:49:24;;;;;;;6.55;3.03;;;17.70;66.20;;;;;;5000876;28;20057;-64
2022/08/02 04:51:50;;;;;;;7.25;2.90;;;17.70;66.20;;;;;;5002073;28;20163;-63
2022/08/02 04:54:15;;;;;;;7.60;3.08;;;17.70;66.20;;;;;;5002278;28;20105;-63
2022/08/02 04:56:41;;;;;;;8.27;3.00;;;17.70;67.00;;;;;;5004241;28;20034;-63
2022/08/02 04:59:08;;;;;;;4.97;2.17;;;17.70;66.30;;;;;;5009868;28;20037;-63
2022/08/02 05:01:38;;;;;;;7.47;2.95;;;17.80;66.40;;;;;;5033978;28;20018;-62
2022/08/02 05:04:04;;;;;;;6.43;2.80;;;17.80;66.40;;;;;;5034166;28;20355;-63
2022/08/02 05:06:30;;;;;;;7.88;2.97;;;17.80;66.40;;;;;;5009997;28;20446;-63
2022/08/02 05:08:56;;;;;;;11.00;3.10;;;17.90;66.40;;;;;;5034001;28;20439;-63
2022/08/02 05:11:23;;;;;;;7.65;2.90;;;17.90;66.40;;;;;;5019414;28;20046;-63
2022/08/02 05:13:49;;;;;;;7.35;3.00;;;17.90;66.50;;;;;;5033380;28;20033;-63
2022/08/02 05:16:15;;;;;;;13.00;3.83;;;17.90;66.40;;;;;;5033370;28;20100;-63
2022/08/02 05:18:40;;;;;;;7.00;3.33;;;18.00;66.50;;;;;;5034531;28;20128;-62
2022/08/02 05:21:06;;;;;;;8.63;3.10;;;18.00;66.60;;;;;;5034292;28;20025;-63
2022/08/02 05:23:32;;;;;;;7.45;3.40;;;18.00;66.70;;;;;;5009649;28;20041;-63
2022/08/02 05:25:57;;;;;;;8.35;3.08;;;18.00;66.70;;;;;;5032123;28;20032;-63
2022/08/02 05:28:24;;;;;;;6.78;3.08;;;18.00;66.80;;;;;;5037548;28;20047;-62
2022/08/02 05:30:50;;;;;;;7.05;3.33;;;18.10;66.80;;;;;;5037387;28;20040;-63
2022/08/02 05:33:15;;;;;;;8.32;3.60;;;18.10;66.80;;;;;;5026390;28;20030;-63
2022/08/02 05:35:41;;;;;;;8.25;3.60;;;18.20;66.90;;;;;;5025938;28;20032;-63
2022/08/02 05:38:07;;;;;;;9.02;3.58;;;18.20;66.90;;;;;;5030195;28;20036;-63
2022/08/02 05:40:32;;;;;;;9.10;3.65;;;18.30;66.90;;;;;;5026102;28;20040;-63
2022/08/02 05:42:58;;;;;;;9.13;3.40;;;18.40;66.80;;;;;;5013405;28;20168;-63
2022/08/02 05:45:23;;;;;;;8.20;3.50;;;18.40;66.80;;;;;;5029904;28;20026;-63
2022/08/02 05:47:50;;;;;;;8.60;3.28;;;18.50;66.60;;;;;;5016110;28;20022;-63
2022/08/02 05:50:16;;;;;;;8.00;3.63;;;18.60;66.50;;;;;;5017069;28;20025;-63
2022/08/02 05:52:47;;;;;;;9.27;4.05;;;18.70;66.50;;;;;;5034208;28;20362;-63
2022/08/02 05:55:13;;;;;;;7.55;3.67;;;18.80;66.20;;;;;;5012928;28;20029;-63
2022/08/02 05:57:59;;;;;;;8.52;3.72;;;18.90;66.10;;;;;;5023300;28;20049;-63
2022/08/02 06:00:27;;;;;;;8.77;3.42;;;19.00;65.80;;;;;;5017044;28;20017;-63
2022/08/02 06:03:06;;;;;;;11.05;3.42;;;19.20;65.60;;;;;;5022187;28;20026;-63
2022/08/02 06:05:35;;;;;;;8.82;3.80;;;19.30;65.60;;;;;;5008248;28;20362;-63
2022/08/02 06:08:02;;;;;;;8.07;3.40;;;19.30;65.30;;;;;;5017104;28;20105;-62
2022/08/02 06:10:30;;;;;;;8.35;3.55;;;19.40;65.10;;;;;;5014970;28;20046;-63
2022/08/02 06:13:11;;;;;;;6.53;3.28;;;19.50;65.00;;;;;;5023792;28;20474;-63
2022/08/02 06:15:37;;;;;;;7.53;3.53;;;19.60;64.70;;;;;;5018853;28;20064;-62
2022/08/02 06:18:04;;;;;;;7.85;3.75;;;19.60;64.40;;;;;;5036750;28;20025;-62
2022/08/02 06:20:37;;;;;;;8.30;3.33;;;19.80;64.40;;;;;;5026797;28;20034;-62
2022/08/02 06:23:07;;;;;;;8.95;4.00;;;19.80;64.30;;;;;;5029494;28;20030;-63
2022/08/02 06:25:39;;;;;;;7.95;3.28;;;20.00;63.90;;;;;;5025599;28;20440;-63
2022/08/02 06:28:05;;;;;;;11.10;3.90;;;20.10;63.70;;;;;;5037169;28;20328;-63
2022/08/02 06:30:32;;;;;;;9.25;3.15;;;20.30;63.30;;;;;;5030859;28;20041;-62
2022/08/02 06:32:58;;;;;;;11.02;3.88;;;20.50;62.90;;;;;;5012692;28;20033;-63
2022/08/02 06:35:50;;;;;;;9.00;3.47;;;20.60;62.60;;;;;;5026818;28;20063;-63
2022/08/02 06:38:26;;;;;;;9.13;3.55;;;20.70;62.10;;;;;;5006819;28;20021;-63
2022/08/02 06:41:01;;;;;;;7.10;3.05;;;20.80;62.00;;;;;;5026385;28;20445;-63
2022/08/02 06:43:27;;;;;;;11.60;3.63;;;20.90;62.00;;;;;;5014013;28;20343;-63
2022/08/02 06:45:53;;;;;;;8.20;3.13;;;21.10;61.70;;;;;;5023172;28;20025;-63
2022/08/02 06:48:18;;;;;;;11.30;3.33;;;21.20;61.50;;;;;;5012117;28;20436;-63
2022/08/02 06:50:44;;;;;;;8.15;3.35;;;21.30;61.40;;;;;;5017806;28;20037;-62
2022/08/02 06:53:10;;;;;;;8.02;3.42;;;21.50;61.30;;;;;;5005281;28;20080;-62
2022/08/02 06:55:36;;;;;;;8.85;3.50;;;21.50;61.10;;;;;;5015358;28;20457;-62
2022/08/02 06:58:02;;;;;;;10.13;2.92;;;21.70;60.80;;;;;;5029432;28;20120;-62
2022/08/02 07:00:28;;;;;;;8.77;3.08;;;21.80;60.70;;;;;;5034545;28;20035;-62
2022/08/02 07:02:54;;;;;;;8.63;3.53;;;21.90;60.40;;;;;;5029180;28;20067;-63
2022/08/02 07:05:20;;;;;;;7.40;3.25;;;22.10;60.30;;;;;;5009610;28;20433;-63
2022/08/02 07:07:45;;;;;;;8.00;3.35;;;22.40;59.90;;;;;;5002246;28;20033;-62
2022/08/02 07:10:12;;;;;;;8.95;3.38;;;22.50;59.40;;;;;;4998275;28;20045;-63
2022/08/02 07:12:39;;;;;;;9.30;3.50;;;22.70;59.10;;;;;;5008432;28;20042;-63
2022/08/02 07:15:06;;;;;;;9.35;3.38;;;22.80;58.90;;;;;;5008551;28;20022;-63
2022/08/02 07:17:32;;;;;;;9.55;3.25;;;22.90;58.70;;;;;;5000296;28;20367;-62
2022/08/02 07:19:59;;;;;;;7.88;3.15;;;23.00;58.50;;;;;;5009497;28;20037;-63
2022/08/02 07:22:25;;;;;;;7.55;3.17;;;23.10;58.30;;;;;;5013109;28;20038;-63
2022/08/02 07:24:52;;;;;;;6.75;2.92;;;23.30;58.30;;;;;;5026518;28;20083;-63
2022/08/02 07:27:18;;;;;;;7.57;3.13;;;23.40;58.20;;;;;;5034232;28;20121;-63
2022/08/02 07:29:44;;;;;;;7.43;2.85;;;23.60;58.20;;;;;;5035456;28;20091;-63
2022/08/02 07:32:10;;;;;;;8.05;3.03;;;23.70;58.00;;;;;;5025112;28;20030;-63
2022/08/02 07:34:35;;;;;;;7.35;2.88;;;23.80;57.70;;;;;;5030498;28;20044;-63
2022/08/02 07:37:01;;;;;;;7.63;3.13;;;23.90;57.70;;;;;;5035505;28;20036;-63
2022/08/02 07:39:27;;;;;;;5.75;2.50;;;24.00;57.50;;;;;;5020950;28;20033;-63
2022/08/02 07:41:53;;;;;;;7.25;3.08;;;24.20;57.20;;;;;;5034761;28;20018;-63
2022/08/02 07:44:19;;;;;;;7.45;3.42;;;24.40;56.90;;;;;;5034791;28;20030;-63
2022/08/02 07:46:45;;;;;;;7.95;3.15;;;24.50;56.70;;;;;;5027483;28;20025;-63
2022/08/02 07:49:17;;;;;;;8.55;3.00;;;24.50;56.60;;;;;;5034630;28;20037;-63
2022/08/02 07:51:43;;;;;;;6.30;2.72;;;24.50;56.60;;;;;;5035297;28;20113;-63
2022/08/02 07:54:09;;;;;;;7.40;3.63;;;24.50;56.50;;;;;;5035207;28;20037;-63
2022/08/02 07:56:36;;;;;;;8.38;2.97;;;24.70;56.40;;;;;;5035026;28;20052;-63
2022/08/02 07:59:02;;;;;;;9.32;3.63;;;24.80;56.30;;;;;;5030552;28;20033;-63
2022/08/02 08:01:28;;;;;;;6.57;3.10;;;25.00;56.20;;;;;;5033853;28;20393;-63
2022/08/02 08:03:54;;;;;;;6.80;3.28;;;25.10;56.60;;;;;;5034585;28;20033;-63
2022/08/02 08:06:19;;;;;;;7.32;3.20;;;25.20;55.90;;;;;;5032538;28;20033;-63
2022/08/02 08:08:45;;;;;;;8.35;3.65;;;25.40;55.80;;;;;;5034435;28;20041;-63
2022/08/02 08:11:10;;;;;;;7.75;3.38;;;25.50;55.60;;;;;;5034954;28;20136;-63
2022/08/02 08:13:36;;;;;;;7.20;3.65;;;25.50;55.40;;;;;;5034970;28;20029;-63
2022/08/02 08:16:02;;;;;;;8.10;3.92;;;25.70;55.30;;;;;;5034262;28;20034;-63
2022/08/02 08:18:28;;;;;;;7.68;3.63;;;25.80;55.00;;;;;;5035020;28;20166;-63
2022/08/02 08:20:54;;;;;;;7.47;3.47;;;25.90;54.90;;;;;;5034493;28;20022;-63
2022/08/02 08:23:20;;;;;;;10.00;3.80;;;26.00;54.70;;;;;;5030573;28;20026;-63
2022/08/02 08:25:45;;;;;;;7.22;3.67;;;26.20;54.70;;;;;;5019184;28;20050;-63
2022/08/02 08:28:11;;;;;;;8.88;3.92;;;26.30;54.40;;;;;;5031398;28;20033;-64
2022/08/02 08:30:39;;;;;;;8.00;4.40;;;26.40;54.10;;;;;;5034811;28;20025;-63
2022/08/02 08:33:04;;;;;;;6.57;3.67;;;26.40;53.60;;;;;;5029636;28;20041;-65
2022/08/02 08:35:30;;;;;;;7.68;3.80;;;26.50;53.60;;;;;;5034191;28;20038;-63
2022/08/02 08:37:56;;;;;;;7.30;4.28;;;26.50;53.40;;;;;;5034964;28;20351;-64
2022/08/02 08:40:24;;;;;;;7.90;4.15;;;26.60;53.20;;;;;;5033361;28;20080;-63
2022/08/02 08:42:49;;;;;;;6.72;3.60;;;26.70;53.20;;;;;;5034711;28;20486;-64
2022/08/02 08:45:16;;;;;;;8.43;4.47;;;26.80;53.20;;;;;;5034247;28;20017;-63
2022/08/02 08:47:42;;;;;;;7.40;4.07;;;26.90;52.90;;;;;;5030317;28;20034;-63
2022/08/02 08:50:11;;;;;;;8.88;4.10;;;26.90;52.70;;;;;;5032038;28;20555;-63
2022/08/02 08:53:07;;;;;;;7.55;3.83;;;26.80;52.70;;;;;;5034449;28;20030;-63
2022/08/02 08:55:35;;;;;;;7.13;3.95;;;26.70;52.70;;;;;;5030047;28;20072;-63
2022/08/02 08:58:03;;;;;;;7.05;4.03;;;26.70;52.80;;;;;;5034679;28;20048;-63
2022/08/02 09:00:30;;;;;;;8.05;4.07;;;26.70;52.60;;;;;;5035469;28;20038;-63
2022/08/02 09:02:57;;;;;;;10.18;3.83;;;26.80;52.40;;;;;;5037920;28;20025;-63
2022/08/02 09:05:24;;;;;;;6.40;3.50;;;26.90;52.30;;;;;;5038302;28;20049;-63
2022/08/02 09:07:51;;;;;;;7.05;3.10;;;26.90;52.10;;;;;;5034595;28;20038;-63
2022/08/02 09:10:39;;;;;;;8.80;3.42;;;27.00;51.80;;;;;;5032833;28;20044;-63
2022/08/02 09:13:22;;;;;;;8.43;3.45;;;27.10;51.60;;;;;;5038222;28;20040;-63
2022/08/02 09:15:58;;;;;;;6.03;3.00;;;27.10;51.50;;;;;;5037609;28;20079;-63
2022/08/02 09:18:30;;;;;;;7.95;3.60;;;27.20;51.60;;;;;;5038370;28;20032;-63
2022/08/02 09:20:58;;;;;;;6.88;3.45;;;27.30;51.50;;;;;;5037532;28;20395;-63
2022/08/02 09:23:25;;;;;;;6.43;2.65;;;27.40;51.20;;;;;;5037741;28;20092;-63
2022/08/02 09:26:00;;;;;;;6.35;2.38;;;27.60;50.70;;;;;;5037893;28;20374;-63
2022/08/02 09:28:30;;;;;;;6.57;2.95;;;27.60;50.00;;;;;;5035555;28;20065;-63
2022/08/02 09:31:25;;;;;;;7.43;2.40;;;27.70;49.80;;;;;;5035071;28;20112;-63
2022/08/02 09:33:56;;;;;;;5.45;2.65;;;27.60;49.70;;;;;;5032981;28;20363;-63
2022/08/02 09:36:22;;;;;;;6.25;2.38;;;27.70;49.40;;;;;;5037562;28;20029;-63
2022/08/02 09:39:11;;;;;;;5.20;2.22;;;27.80;49.20;;;;;;5037782;28;20033;-63
2022/08/02 09:41:41;;;;;;;5.53;2.00;;;28.00;48.80;;;;;;5037526;28;20483;-64
2022/08/02 09:44:12;;;;;;;4.85;1.80;;;28.20;48.60;;;;;;5029255;28;20392;-63
2022/08/02 09:46:42;;;;;;;3.85;1.63;;;28.30;48.20;;;;;;5037158;28;20034;-64
2022/08/02 09:49:13;;;;;;;4.70;1.50;;;28.40;47.40;;;;;;5037736;28;20213;-64
2022/08/02 09:51:51;;;;;;;4.22;1.83;;;28.30;47.00;;;;;;5036162;28;20049;-63
2022/08/02 09:54:27;;;;;;;2.95;1.48;;;28.40;46.70;;;;;;5037372;28;20033;-63
2022/08/02 09:56:55;;;;;;;3.10;1.65;;;28.50;46.80;;;;;;5036988;28;20029;-63
2022/08/02 09:59:23;;;;;;;4.22;2.10;;;28.60;46.80;;;;;;5016389;28;20113;-63
2022/08/02 10:01:50;;;;;;;6.45;2.08;;;28.70;46.60;;;;;;5032316;28;20033;-64
2022/08/02 10:04:21;;;;;;;4.22;1.70;;;28.80;46.50;;;;;;5036873;28;20026;-64
2022/08/02 10:06:48;;;;;;;5.93;1.70;;;28.90;46.30;;;;;;5035745;28;20037;-64
2022/08/02 10:09:15;;;;;;;4.57;1.55;;;28.80;46.30;;;;;;5037101;28;20041;-64
2022/08/02 10:11:41;;;;;;;3.00;1.60;;;28.80;46.50;;;;;;5036240;28;20056;-64
2022/08/02 10:14:09;;;;;;;3.67;1.50;;;28.80;46.60;;;;;;5034143;28;20033;-64
2022/08/02 10:16:40;;;;;;;3.47;1.40;;;28.80;46.50;;;;;;5027579;28;20121;-64
2022/08/02 10:19:06;;;;;;;3.97;1.60;;;28.90;46.40;;;;;;5036941;28;20080;-64
2022/08/02 10:21:57;;;;;;;3.60;1.60;;;28.90;46.30;;;;;;5036557;28;20474;-64
2022/08/02 10:24:29;;;;;;;3.55;1.58;;;29.00;46.20;;;;;;5036838;28;20026;-64
2022/08/02 10:26:55;;;;;;;3.08;1.38;;;29.20;46.20;;;;;;5036251;28;20059;-64
2022/08/02 10:29:36;;;;;;;3.60;1.60;;;29.20;46.00;;;;;;5023995;28;20033;-64
2022/08/02 10:32:12;;;;;;;3.20;1.50;;;29.10;45.70;;;;;;5013377;28;20315;-63
2022/08/02 10:34:55;;;;;;;3.30;1.50;;;29.00;46.00;;;;;;5036062;28;20033;-63
2022/08/02 10:37:26;;;;;;;3.03;1.50;;;28.90;46.20;;;;;;5036487;28;20060;-63
2022/08/02 10:39:56;;;;;;;3.10;1.60;;;28.90;46.30;;;;;;5036481;28;20025;-64
2022/08/02 10:42:47;;;;;;;3.95;1.80;;;28.80;46.20;;;;;;5033624;28;20086;-64
2022/08/02 10:45:14;;;;;;;;;;;28.70;46.30;;;;;;5022849;28;20044;-64
2022/08/02 10:48:06;;;;;;;3.60;1.67;;;28.60;47.30;;;;;;5031014;28;19936;-64
2022/08/02 10:50:47;;;;;;;3.40;1.38;;;28.60;46.80;;;;;;5036551;28;20081;-64
2022/08/02 10:53:28;;;;;;;3.30;1.58;;;28.60;47.00;;;;;;5036034;28;20064;-64
2022/08/02 10:55:57;;;;;;;4.03;1.45;;;28.60;47.10;;;;;;5029875;28;20362;-64
2022/08/02 10:58:26;;;;;;;3.20;1.52;;;28.60;47.00;;;;;;5036116;28;20025;-64
2022/08/02 11:00:52;;;;;;;2.85;1.48;;;28.80;46.60;;;;;;5034772;28;20354;-64
2022/08/02 11:03:27;;;;;;;3.58;1.50;;;28.90;46.20;;;;;;5023650;28;20030;-64
2022/08/02 11:06:05;;;;;;;3.55;1.33;;;29.10;45.80;;;;;;5009344;28;20420;-64
2022/08/02 11:08:32;;;;;;;2.92;1.10;;;29.30;45.30;;;;;;5036130;28;20061;-64
2022/08/02 11:11:00;;;;;;;2.38;1.30;;;29.40;45.10;;;;;;5035816;28;20057;-64
2022/08/02 11:13:27;;;;;;;2.50;1.38;;;29.40;44.90;;;;;;5036037;28;20415;-64
2022/08/02 11:16:01;;;;;;;3.05;1.35;;;29.40;44.90;;;;;;5035810;28;20065;-64
2022/08/02 11:18:48;;;;;;;2.58;1.40;;;29.40;44.70;;;;;;5027537;28;20129;-64
2022/08/02 11:21:33;;;;;;;2.53;1.30;;;29.60;44.40;;;;;;5035761;28;20071;-64
2022/08/02 11:24:28;;;;;;;3.60;1.50;;;29.60;44.20;;;;;;5034734;28;20151;-64
2022/08/02 11:26:54;;;;;;;2.38;1.30;;;29.60;44.00;;;;;;5035000;28;20130;-64
2022/08/02 11:29:20;;;;;;;2.92;1.35;;;29.60;44.20;;;;;;5031709;28;20025;-64
2022/08/02 11:31:46;;;;;;;5.32;1.40;;;29.50;44.00;;;;;;5035085;28;20039;-64
2022/08/02 11:34:12;;;;;;;4.25;1.50;;;29.40;43.90;;;;;;5035653;28;20034;-64
2022/08/02 11:36:50;;;;;;;2.75;1.25;;;29.30;43.90;;;;;;5031623;28;20040;-64
2022/08/02 11:39:18;;;;;;;2.65;1.50;;;29.10;43.90;;;;;;5027317;28;20458;-64
2022/08/02 11:41:52;;;;;;;2.95;1.30;;;29.00;44.00;;;;;;5035500;28;20017;-64
2022/08/02 11:44:18;;;;;;;4.18;1.40;;;29.10;43.90;;;;;;5035574;28;20045;-64
2022/08/02 11:46:52;;;;;;;2.03;1.27;;;29.20;44.00;;;;;;5033162;28;20021;-64
2022/08/02 11:49:17;;;;;;;4.20;1.40;;;29.30;44.00;;;;;;5026928;28;20029;-64
2022/08/02 11:51:56;;;;;;;2.78;1.25;;;29.40;43.90;;;;;;5031539;28;20466;-64
2022/08/02 11:54:33;;;;;;;3.70;1.60;;;29.50;43.80;;;;;;5034868;28;20113;-64
2022/08/02 11:57:18;;;;;;;2.80;1.38;;;29.60;43.40;;;;;;5034880;28;20075;-64
2022/08/02 11:59:44;;;;;;;3.03;1.30;;;29.60;43.20;;;;;;5035154;28;20040;-64
2022/08/02 12:02:11;;;;;;;2.78;1.38;;;29.50;43.10;;;;;;5031024;28;20040;-64
2022/08/02 12:04:38;;;;;;;2.33;1.27;;;29.40;43.10;;;;;;5035026;28;20159;-64
2022/08/02 12:07:05;;;;;;;2.65;1.30;;;29.30;43.10;;;;;;5032566;28;20057;-64
2022/08/02 12:09:33;;;;;;;2.58;1.40;;;29.30;43.00;;;;;;5023690;28;20044;-64
2022/08/02 12:12:00;;;;;;;4.18;1.38;;;29.30;42.90;;;;;;5034724;28;20378;-64
2022/08/02 12:14:27;;;;;;;3.38;1.58;;;29.30;42.50;;;;;;5033487;28;20043;-64
2022/08/02 12:19:38;;;;;;;3.03;1.35;;;29.30;42.30;;;;;;5010824;28;20026;-64
2022/08/02 12:22:11;;;;;;;2.30;1.20;;;29.20;42.20;;;;;;5034699;28;20037;-64
2022/08/02 12:24:38;;;;;;;2.55;1.20;;;29.10;42.10;;;;;;5034905;28;20060;-64
2022/08/02 12:27:04;;;;;;;3.30;1.38;;;29.00;42.10;;;;;;5034994;28;20442;-64
2022/08/02 12:29:30;;;;;;;2.60;1.20;;;29.00;42.10;;;;;;5034660;28;20108;-64
2022/08/02 12:31:57;;;;;;;2.60;1.40;;;29.00;42.20;;;;;;5034714;28;20037;-64
2022/08/02 12:34:23;;;;;;;4.72;1.48;;;29.00;42.10;;;;;;5024543;28;20030;-64
2022/08/02 12:37:09;;;;;;;2.35;1.20;;;29.00;42.00;;;;;;5038642;28;20439;-64
2022/08/02 12:39:41;;;;;;;3.78;1.67;;;29.00;41.90;;;;;;5039074;28;20044;-64
2022/08/02 12:42:09;;;;;;;5.05;1.60;;;29.00;42.00;;;;;;5038820;28;20040;-64
2022/08/02 12:44:57;;;;;;;2.40;1.30;;;29.00;41.80;;;;;;5038693;28;20369;-64
2022/08/02 12:47:23;;;;;;;3.13;1.40;;;29.10;41.70;;;;;;5029566;28;20041;-64
2022/08/02 12:50:11;;;;;;;2.92;1.40;;;29.10;41.80;;;;;;5022061;28;20413;-64
2022/08/02 12:52:37;;;;;;;3.22;1.30;;;29.00;41.40;;;;;;5038606;28;20333;-64
2022/08/02 12:55:25;;;;;;;2.47;1.30;;;29.00;41.50;;;;;;5038364;28;20129;-64
2022/08/02 12:58:01;;;;;;;2.28;1.30;;;29.00;41.50;;;;;;5038464;28;20425;-64
2022/08/02 13:00:34;;;;;;;2.70;1.17;;;29.00;41.20;;;;;;5038022;28;20029;-64
2022/08/02 13:03:00;;;;;;;1.17;0.88;;;28.90;41.20;;;;;;5035034;28;20080;-64